Time;durP1;ratioP1;P1;durP2;ratioP2;P2;SDS_P1;SDS_P2;PMS_P1;PMS_P2;Temp;Humidity;BMP_temperature;BMP_pressure;BME280_temperature;BME280_humidity;BME280_pressure;Samples;Min_cycle;Max_cycle;Signal;HPM_P1;HPM_P2
2023/09/02 00:00:14;;;;;;;13.33;12.03;;;;;;;;;;4995554;28;20930;-73
2023/09/02 00:02:40;;;;;;;13.50;12.30;;;;;;;;;;4995210;28;20474;-73
2023/09/02 00:05:06;;;;;;;13.10;12.10;;;;;;;;;;4995049;28;20452;-73
2023/09/02 00:07:32;;;;;;;13.73;12.03;;;;;;;;;;4999849;28;20446;-73
2023/09/02 00:09:58;;;;;;;13.17;12.27;;;;;;;;;;4991457;28;20856;-72
2023/09/02 00:12:24;;;;;;;13.13;11.80;;;;;;;;;;4990980;28;20491;-72
2023/09/02 00:14:50;;;;;;;13.53;12.33;;;;;;;;;;4996675;28;20455;-74
2023/09/02 00:17:16;;;;;;;13.20;12.10;;;;;;;;;;4989627;28;20934;-73
2023/09/02 00:19:43;;;;;;;16.40;13.17;;;;;;;;;;4990891;28;20447;-73
2023/09/02 00:22:09;;;;;;;13.60;12.33;;;;;;;;;;4990486;28;20473;-73
2023/09/02 00:24:35;;;;;;;13.83;12.60;;;;;;;;;;4998097;28;20462;-72
2023/09/02 00:27:04;;;;;;;13.00;12.00;;;;;;;;;;4993490;28;20555;-73
2023/09/02 00:29:30;;;;;;;14.20;12.97;;;;;;;;;;4993997;28;21176;-72
2023/09/02 00:31:56;;;;;;;14.17;12.87;;;;;;;;;;4993242;28;20511;-72
2023/09/02 00:34:22;;;;;;;14.60;12.90;;;;;;;;;;4990244;28;20455;-73
2023/09/02 00:36:49;;;;;;;19.37;13.80;;;;;;;;;;4992817;28;20818;-73
2023/09/02 00:39:15;;;;;;;13.70;12.50;;;;;;;;;;4992831;28;20487;-73
2023/09/02 00:41:49;;;;;;;15.87;14.37;;;;;;;;;;4994138;28;20455;-73
2023/09/02 00:44:15;;;;;;;17.97;14.40;;;;;;;;;;4993240;28;20981;-73
2023/09/02 00:46:41;;;;;;;18.63;15.07;;;;;;;;;;4994628;28;20457;-74
2023/09/02 00:49:07;;;;;;;16.73;14.00;;;;;;;;;;4995216;28;20435;-73
2023/09/02 00:51:33;;;;;;;16.80;15.00;;;;;;;;;;4994219;28;20448;-73
2023/09/02 00:53:59;;;;;;;16.33;14.83;;;;;;;;;;4994098;28;20965;-73
2023/09/02 00:56:25;;;;;;;24.70;16.27;;;;;;;;;;4990499;28;20685;-73
2023/09/02 00:58:52;;;;;;;17.43;15.40;;;;;;;;;;4989374;28;20451;-73
2023/09/02 01:01:19;;;;;;;17.93;15.87;;;;;;;;;;4999098;28;20542;-73
2023/09/02 01:03:45;;;;;;;16.73;14.93;;;;;;;;;;4994938;28;20474;-72
2023/09/02 01:06:11;;;;;;;18.97;15.87;;;;;;;;;;4988277;28;20507;-72
2023/09/02 01:08:38;;;;;;;20.13;15.53;;;;;;;;;;4994935;28;21164;-73
2023/09/02 01:11:04;;;;;;;18.83;16.37;;;;;;;;;;4997626;28;21004;-73
2023/09/02 01:13:30;;;;;;;18.37;16.47;;;;;;;;;;5000264;28;20439;-73
2023/09/02 01:15:57;;;;;;;19.30;16.93;;;;;;;;;;4990202;28;20550;-72
2023/09/02 01:18:23;;;;;;;18.90;16.00;;;;;;;;;;4997492;28;20489;-72
2023/09/02 01:20:58;;;;;;;30.13;17.67;;;;;;;;;;4995406;28;20442;-73
2023/09/02 01:23:24;;;;;;;23.30;16.27;;;;;;;;;;5003168;28;20462;-72
2023/09/02 01:26:02;;;;;;;22.17;18.00;;;;;;;;;;4996163;28;20483;-72
2023/09/02 01:28:31;;;;;;;17.90;16.03;;;;;;;;;;4997391;28;20446;-73
2023/09/02 01:30:58;;;;;;;17.83;15.90;;;;;;;;;;4992547;28;20412;-73
2023/09/02 01:33:26;;;;;;;18.87;15.57;;;;;;;;;;4999406;28;20440;-73
2023/09/02 01:35:53;;;;;;;16.77;14.97;;;;;;;;;;4999322;28;20481;-74
2023/09/02 01:38:21;;;;;;;16.27;14.57;;;;;;;;;;4996751;28;20445;-74
2023/09/02 01:40:48;;;;;;;19.17;15.23;;;;;;;;;;4994366;28;20435;-73
2023/09/02 01:43:17;;;;;;;19.07;15.20;;;;;;;;;;4995970;28;20451;-73
2023/09/02 01:45:43;;;;;;;18.70;16.83;;;;;;;;;;4996356;28;21150;-74
2023/09/02 01:48:10;;;;;;;17.23;15.43;;;;;;;;;;4995369;28;20518;-74
2023/09/02 01:50:38;;;;;;;26.77;18.00;;;;;;;;;;4993877;28;20431;-74
2023/09/02 01:53:04;;;;;;;22.37;16.40;;;;;;;;;;4997617;28;20455;-74
2023/09/02 01:55:30;;;;;;;23.83;16.47;;;;;;;;;;4998701;28;20522;-72
2023/09/02 01:57:57;;;;;;;17.37;14.83;;;;;;;;;;4995316;28;20435;-73
2023/09/02 02:00:23;;;;;;;17.90;16.20;;;;;;;;;;4996188;28;20526;-73
2023/09/02 02:02:49;;;;;;;18.90;17.03;;;;;;;;;;4995071;28;20424;-74
2023/09/02 02:05:18;;;;;;;23.13;17.60;;;;;;;;;;4995656;28;20435;-73
2023/09/02 02:07:47;;;;;;;18.97;16.97;;;;;;;;;;4995654;28;20780;-73
2023/09/02 02:10:15;;;;;;;21.13;17.47;;;;;;;;;;4998184;28;20492;-73
2023/09/02 02:12:42;;;;;;;19.47;17.67;;;;;;;;;;4998943;28;20474;-74
2023/09/02 02:15:10;;;;;;;18.67;16.83;;;;;;;;;;4996057;28;20448;-73
2023/09/02 02:17:37;;;;;;;20.13;18.00;;;;;;;;;;4996432;28;20427;-72
2023/09/02 02:20:03;;;;;;;19.37;17.33;;;;;;;;;;4997986;28;20447;-72
2023/09/02 02:22:29;;;;;;;20.67;15.63;;;;;;;;;;4999178;28;20445;-74
2023/09/02 02:24:55;;;;;;;20.47;17.70;;;;;;;;;;4997902;28;20482;-72
2023/09/02 02:27:22;;;;;;;25.57;16.50;;;;;;;;;;4995616;28;20446;-73
2023/09/02 02:29:48;;;;;;;18.37;16.57;;;;;;;;;;4994327;28;20835;-73
2023/09/02 02:32:13;;;;;;;21.00;18.77;;;;;;;;;;4999049;28;20469;-73
2023/09/02 02:34:40;;;;;;;19.17;15.07;;;;;;;;;;4995658;28;20451;-73
2023/09/02 02:37:05;;;;;;;20.00;17.20;;;;;;;;;;4994645;28;20443;-73
2023/09/02 02:39:31;;;;;;;22.80;17.00;;;;;;;;;;4996938;28;20439;-72
2023/09/02 02:41:57;;;;;;;18.10;15.90;;;;;;;;;;4992487;28;20441;-73
2023/09/02 02:44:23;;;;;;;28.33;17.63;;;;;;;;;;4997134;28;21124;-73
2023/09/02 02:46:49;;;;;;;18.03;16.30;;;;;;;;;;4994583;28;20803;-74
2023/09/02 02:49:15;;;;;;;21.67;16.27;;;;;;;;;;4992685;28;20538;-72
2023/09/02 02:51:41;;;;;;;19.20;15.47;;;;;;;;;;4992184;28;20547;-72
2023/09/02 02:54:07;;;;;;;17.73;16.03;;;;;;;;;;4997034;28;20467;-72
2023/09/02 02:56:33;;;;;;;17.57;15.87;;;;;;;;;;4993527;28;20450;-73
2023/09/02 02:58:59;;;;;;;20.13;15.40;;;;;;;;;;4999334;28;20470;-73
2023/09/02 03:01:26;;;;;;;19.73;16.40;;;;;;;;;;4996799;28;20440;-72
2023/09/02 03:03:52;;;;;;;18.27;16.40;;;;;;;;;;4992559;28;20485;-73
2023/09/02 03:06:18;;;;;;;18.97;16.33;;;;;;;;;;4990561;28;20883;-72
2023/09/02 03:08:45;;;;;;;18.27;16.37;;;;;;;;;;4992712;28;20422;-72
2023/09/02 03:11:11;;;;;;;19.50;15.90;;;;;;;;;;4992226;28;20482;-73
2023/09/02 03:13:37;;;;;;;24.43;17.33;;;;;;;;;;4991616;28;20439;-73
2023/09/02 03:16:04;;;;;;;20.93;16.67;;;;;;;;;;4993543;28;20857;-73
2023/09/02 03:18:30;;;;;;;21.60;15.53;;;;;;;;;;4990883;28;20478;-74
2023/09/02 03:21:02;;;;;;;22.57;16.00;;;;;;;;;;4994382;28;20478;-74
2023/09/02 03:23:28;;;;;;;20.63;16.70;;;;;;;;;;4991811;28;20431;-74
2023/09/02 03:25:54;;;;;;;18.90;16.30;;;;;;;;;;4954204;28;1143179;-73
2023/09/02 03:28:20;;;;;;;19.30;16.97;;;;;;;;;;4992444;28;20452;-73
2023/09/02 03:30:46;;;;;;;21.00;17.70;;;;;;;;;;4996118;28;20443;-73
2023/09/02 03:33:14;;;;;;;19.27;16.17;;;;;;;;;;4993130;28;20466;-73
2023/09/02 03:35:40;;;;;;;16.83;14.90;;;;;;;;;;4991745;28;20441;-73
2023/09/02 03:38:06;;;;;;;17.90;15.20;;;;;;;;;;4999292;28;20513;-72
2023/09/02 03:40:33;;;;;;;17.30;14.60;;;;;;;;;;4993339;28;20535;-73
2023/09/02 03:42:59;;;;;;;19.00;14.77;;;;;;;;;;4995643;28;20420;-73
2023/09/02 03:45:25;;;;;;;21.30;15.20;;;;;;;;;;4999669;28;20746;-72
2023/09/02 03:47:51;;;;;;;20.43;16.20;;;;;;;;;;4995365;28;20435;-74
2023/09/02 03:50:26;;;;;;;19.30;15.90;;;;;;;;;;4999254;28;20443;-73
2023/09/02 03:52:52;;;;;;;16.80;15.07;;;;;;;;;;4999792;28;20533;-73
2023/09/02 03:55:18;;;;;;;20.10;15.80;;;;;;;;;;4989277;28;20460;-74
2023/09/02 03:57:44;;;;;;;18.07;14.53;;;;;;;;;;4990498;28;20451;-73
2023/09/02 04:00:10;;;;;;;20.00;17.90;;;;;;;;;;4993281;28;20503;-73
2023/09/02 04:02:36;;;;;;;17.50;15.70;;;;;;;;;;4993771;28;20431;-73
2023/09/02 04:05:03;;;;;;;16.00;14.30;;;;;;;;;;4988481;28;20506;-73
2023/09/02 04:07:29;;;;;;;21.77;16.30;;;;;;;;;;4991477;28;20416;-74
2023/09/02 04:09:56;;;;;;;23.70;14.90;;;;;;;;;;4994054;28;20573;-74
2023/09/02 04:12:23;;;;;;;19.03;14.83;;;;;;;;;;4988663;28;20477;-73
2023/09/02 04:14:50;;;;;;;15.03;12.97;;;;;;;;;;4997628;28;20427;-73
2023/09/02 04:17:16;;;;;;;14.87;12.80;;;;;;;;;;4991583;28;20433;-73
2023/09/02 04:19:42;;;;;;;14.10;12.60;;;;;;;;;;4995180;28;20425;-74
2023/09/02 04:22:08;;;;;;;13.90;12.50;;;;;;;;;;4994472;28;20451;-74
2023/09/02 04:24:34;;;;;;;16.23;14.00;;;;;;;;;;5001255;28;20461;-74
2023/09/02 04:27:01;;;;;;;12.07;10.97;;;;;;;;;;4991036;28;20440;-72
2023/09/02 04:29:27;;;;;;;12.10;11.00;;;;;;;;;;4989757;28;20494;-73
2023/09/02 04:31:53;;;;;;;11.37;10.43;;;;;;;;;;4993916;28;20558;-72
2023/09/02 04:34:19;;;;;;;12.47;11.30;;;;;;;;;;4991887;28;20439;-73
2023/09/02 04:36:45;;;;;;;11.87;10.70;;;;;;;;;;4999720;28;20438;-73
2023/09/02 04:39:11;;;;;;;11.70;10.60;;;;;;;;;;4994859;28;20478;-73
2023/09/02 04:41:37;;;;;;;9.67;9.00;;;;;;;;;;4991954;28;20893;-74
2023/09/02 04:44:03;;;;;;;12.87;11.67;;;;;;;;;;4998843;28;20435;-74
2023/09/02 04:46:29;;;;;;;10.90;9.87;;;;;;;;;;4998308;28;20451;-74
2023/09/02 04:48:55;;;;;;;10.20;9.30;;;;;;;;;;4997446;28;20915;-73
2023/09/02 04:51:21;;;;;;;10.00;9.20;;;;;;;;;;4997831;28;20671;-73
2023/09/02 04:53:47;;;;;;;9.10;8.60;;;;;;;;;;4997913;28;20415;-72
2023/09/02 04:56:14;;;;;;;10.03;9.30;;;;;;;;;;5001206;28;20429;-72
2023/09/02 04:58:40;;;;;;;9.07;8.47;;;;;;;;;;4997948;28;20602;-72
2023/09/02 05:01:12;;;;;;;7.97;7.30;;;;;;;;;;4998354;28;20439;-73
2023/09/02 05:03:39;;;;;;;7.00;6.60;;;;;;;;;;4997534;28;20435;-73
2023/09/02 05:06:07;;;;;;;7.47;6.87;;;;;;;;;;4998881;28;20436;-74
2023/09/02 05:08:34;;;;;;;8.43;7.43;;;;;;;;;;4990926;28;21218;-73
2023/09/02 05:11:00;;;;;;;7.07;6.50;;;;;;;;;;4999714;28;20509;-72
2023/09/02 05:13:26;;;;;;;7.83;7.23;;;;;;;;;;4993399;28;20479;-72
2023/09/02 05:15:52;;;;;;;7.27;6.67;;;;;;;;;;5005476;28;20474;-74
2023/09/02 05:18:18;;;;;;;7.57;7.10;;;;;;;;;;5003701;28;20444;-72
2023/09/02 05:20:44;;;;;;;6.80;6.30;;;;;;;;;;5001956;28;20443;-73
2023/09/02 05:23:12;;;;;;;6.17;5.87;;;;;;;;;;4995007;28;20463;-73
2023/09/02 05:25:39;;;;;;;6.90;6.40;;;;;;;;;;4997550;28;21017;-73
2023/09/02 05:28:05;;;;;;;5.40;5.20;;;;;;;;;;5001851;28;20456;-74
2023/09/02 05:30:35;;;;;;;6.07;5.77;;;;;;;;;;4997713;28;20447;-73
2023/09/02 05:33:01;;;;;;;7.40;6.80;;;;;;;;;;4996453;28;20485;-75
2023/09/02 05:35:27;;;;;;;5.63;5.20;;;;;;;;;;4997388;28;20538;-73
2023/09/02 05:37:53;;;;;;;5.97;5.67;;;;;;;;;;5001833;28;20450;-73
2023/09/02 05:40:19;;;;;;;5.17;4.87;;;;;;;;;;4999592;28;20539;-73
2023/09/02 05:42:45;;;;;;;6.63;5.10;;;;;;;;;;4995889;28;20454;-73
2023/09/02 05:45:11;;;;;;;5.50;5.10;;;;;;;;;;5006589;28;20964;-74
2023/09/02 05:47:37;;;;;;;5.30;5.10;;;;;;;;;;5003634;28;20436;-73
2023/09/02 05:50:03;;;;;;;4.97;4.87;;;;;;;;;;5006112;28;20985;-73
2023/09/02 05:52:29;;;;;;;5.10;4.67;;;;;;;;;;5001288;28;20463;-74
2023/09/02 05:54:55;;;;;;;4.27;4.07;;;;;;;;;;5009549;28;20427;-74
2023/09/02 05:57:21;;;;;;;4.37;4.17;;;;;;;;;;5013099;28;20439;-73
2023/09/02 05:59:47;;;;;;;4.10;4.10;;;;;;;;;;5008392;28;20865;-74
2023/09/02 06:02:13;;;;;;;4.37;4.07;;;;;;;;;;5015477;28;20449;-74
2023/09/02 06:04:38;;;;;;;5.10;4.90;;;;;;;;;;5007876;28;20518;-73
2023/09/02 06:07:04;;;;;;;4.70;4.10;;;;;;;;;;5010095;28;20451;-74
2023/09/02 06:09:31;;;;;;;4.27;4.27;;;;;;;;;;5007996;28;20505;-74
2023/09/02 06:11:57;;;;;;;3.77;3.70;;;;;;;;;;5002524;28;20494;-72
2023/09/02 06:14:23;;;;;;;8.60;3.67;;;;;;;;;;5010019;28;20474;-73
2023/09/02 06:16:50;;;;;;;4.60;3.27;;;;;;;;;;5009056;28;20454;-73
2023/09/02 06:19:16;;;;;;;3.50;3.40;;;;;;;;;;5005711;28;20427;-73
2023/09/02 06:21:42;;;;;;;4.10;3.80;;;;;;;;;;5007163;28;20542;-74
2023/09/02 06:24:08;;;;;;;3.87;3.60;;;;;;;;;;5005383;28;20423;-74
2023/09/02 06:26:34;;;;;;;3.20;3.00;;;;;;;;;;5010547;28;20501;-74
2023/09/02 06:29:00;;;;;;;3.53;3.43;;;;;;;;;;5006423;28;20503;-74
2023/09/02 06:31:26;;;;;;;4.40;3.97;;;;;;;;;;5006492;28;20431;-73
2023/09/02 06:33:52;;;;;;;4.30;4.10;;;;;;;;;;5003990;28;21074;-74
2023/09/02 06:36:20;;;;;;;3.33;3.23;;;;;;;;;;5004870;28;20415;-74
2023/09/02 06:38:46;;;;;;;4.20;3.80;;;;;;;;;;5004087;28;20439;-74
2023/09/02 06:41:13;;;;;;;3.93;3.83;;;;;;;;;;5003698;28;20453;-74
2023/09/02 06:43:39;;;;;;;4.30;4.00;;;;;;;;;;5014837;28;20427;-74
2023/09/02 06:46:12;;;;;;;3.57;3.47;;;;;;;;;;5007211;28;20546;-73
2023/09/02 06:48:38;;;;;;;4.77;4.37;;;;;;;;;;5024181;28;20852;-74
2023/09/02 06:51:04;;;;;;;4.30;4.00;;;;;;;;;;4998914;28;20457;-75
2023/09/02 06:53:30;;;;;;;3.77;3.57;;;;;;;;;;5006042;28;20550;-74
2023/09/02 06:55:56;;;;;;;3.20;3.10;;;;;;;;;;5009045;28;20988;-73
2023/09/02 06:58:22;;;;;;;3.47;3.37;;;;;;;;;;5004807;28;20443;-74
2023/09/02 07:00:48;;;;;;;3.87;3.37;;;;;;;;;;5004149;28;20469;-73
2023/09/02 07:03:14;;;;;;;3.00;2.90;;;;;;;;;;5003795;28;20455;-74
2023/09/02 07:05:40;;;;;;;2.50;2.50;;;;;;;;;;4988598;28;20486;-73
2023/09/02 07:08:06;;;;;;;2.23;2.20;;;;;;;;;;4984613;28;20534;-74
2023/09/02 07:10:32;;;;;;;2.87;2.67;;;;;;;;;;4991393;28;21134;-74
2023/09/02 07:12:58;;;;;;;3.10;2.90;;;;;;;;;;4988850;28;20483;-74
2023/09/02 07:15:24;;;;;;;2.47;2.37;;;;;;;;;;4990300;28;20443;-74
2023/09/02 07:17:52;;;;;;;2.40;2.20;;;;;;;;;;4989805;28;20451;-73
2023/09/02 07:20:18;;;;;;;2.67;2.53;;;;;;;;;;5000329;28;20449;-73
2023/09/02 07:22:44;;;;;;;2.30;2.20;;;;;;;;;;4999538;28;20535;-74
2023/09/02 07:25:10;;;;;;;3.40;2.13;;;;;;;;;;4991528;28;20506;-74
2023/09/02 07:27:36;;;;;;;2.60;2.60;;;;;;;;;;4995535;28;21017;-74
2023/09/02 07:30:02;;;;;;;3.17;3.07;;;;;;;;;;4999173;28;20530;-73
2023/09/02 07:32:28;;;;;;;3.47;2.70;;;;;;;;;;4990680;28;20483;-73
2023/09/02 07:34:54;;;;;;;2.83;2.37;;;;;;;;;;4985535;28;20540;-73
2023/09/02 07:37:20;;;;;;;2.37;2.27;;;;;;;;;;4990736;28;20449;-71
2023/09/02 07:39:46;;;;;;;2.90;2.70;;;;;;;;;;4991697;28;20467;-72
2023/09/02 07:42:12;;;;;;;2.83;2.27;;;;;;;;;;4988889;28;20444;-73
2023/09/02 07:44:38;;;;;;;3.50;3.10;;;;;;;;;;4984763;28;20494;-74
2023/09/02 07:47:04;;;;;;;2.93;2.87;;;;;;;;;;4987470;28;20543;-74
2023/09/02 07:49:30;;;;;;;2.63;2.43;;;;;;;;;;4992332;28;20448;-73
2023/09/02 07:51:57;;;;;;;2.10;1.80;;;;;;;;;;4995791;28;20502;-73
2023/09/02 07:54:23;;;;;;;2.07;2.07;;;;;;;;;;4993804;28;21047;-72
2023/09/02 07:56:49;;;;;;;2.03;1.93;;;;;;;;;;4989649;28;20463;-72
2023/09/02 07:59:15;;;;;;;2.00;1.90;;;;;;;;;;4993808;28;20466;-73
2023/09/02 08:01:41;;;;;;;1.90;1.90;;;;;;;;;;4996201;28;20455;-73
2023/09/02 08:04:07;;;;;;;2.77;2.43;;;;;;;;;;4994888;28;20451;-73
2023/09/02 08:06:33;;;;;;;3.20;2.60;;;;;;;;;;4992314;28;20443;-73
2023/09/02 08:08:59;;;;;;;2.37;2.20;;;;;;;;;;4992520;28;20950;-72
2023/09/02 08:11:25;;;;;;;2.33;2.13;;;;;;;;;;4989513;28;20435;-73
2023/09/02 08:13:51;;;;;;;2.03;1.93;;;;;;;;;;4993540;28;20553;-74
2023/09/02 08:16:17;;;;;;;2.00;2.00;;;;;;;;;;4993588;28;20447;-73
2023/09/02 08:18:43;;;;;;;2.80;2.50;;;;;;;;;;4988504;28;20455;-72
2023/09/02 08:21:09;;;;;;;2.10;2.10;;;;;;;;;;4992309;28;20455;-74
2023/09/02 08:23:38;;;;;;;3.80;3.60;;;;;;;;;;4994166;28;20465;-75
2023/09/02 08:26:12;;;;;;;5.30;3.50;;;;;;;;;;4989717;28;20486;-73
2023/09/02 08:28:38;;;;;;;4.30;4.00;;;;;;;;;;4987073;28;20471;-74
2023/09/02 08:31:04;;;;;;;4.83;4.53;;;;;;;;;;4989252;28;20498;-74
2023/09/02 08:33:30;;;;;;;4.80;4.47;;;;;;;;;;4990915;28;20546;-77
2023/09/02 08:35:56;;;;;;;4.80;4.50;;;;;;;;;;4993183;28;20505;-74
2023/09/02 08:38:22;;;;;;;5.07;4.77;;;;;;;;;;4984599;28;21154;-74
2023/09/02 08:40:49;;;;;;;5.47;5.00;;;;;;;;;;4990271;28;20438;-73
2023/09/02 08:43:16;;;;;;;4.27;4.07;;;;;;;;;;4990987;28;20482;-73
2023/09/02 08:45:44;;;;;;;5.50;5.10;;;;;;;;;;4989968;28;20451;-73
2023/09/02 08:48:12;;;;;;;5.07;4.70;;;;;;;;;;4994033;28;20443;-73
2023/09/02 08:50:38;;;;;;;5.53;5.17;;;;;;;;;;4999403;28;20930;-74
2023/09/02 08:53:04;;;;;;;5.83;5.37;;;;;;;;;;4993613;28;20494;-75
2023/09/02 08:55:32;;;;;;;5.40;4.90;;;;;;;;;;4994411;28;21050;-73
2023/09/02 08:57:59;;;;;;;4.13;3.30;;;;;;;;;;4998596;28;20479;-72
2023/09/02 09:00:25;;;;;;;4.17;3.77;;;;;;;;;;4999050;28;20487;-73
2023/09/02 09:02:51;;;;;;;3.17;3.07;;;;;;;;;;5000712;28;20443;-73
2023/09/02 09:05:17;;;;;;;3.67;3.50;;;;;;;;;;4995422;28;20497;-73
2023/09/02 09:07:44;;;;;;;3.90;3.70;;;;;;;;;;4993779;28;20459;-73
2023/09/02 09:10:11;;;;;;;4.50;4.30;;;;;;;;;;4997458;28;20846;-74
2023/09/02 09:12:37;;;;;;;5.10;3.70;;;;;;;;;;4996676;28;20470;-73
2023/09/02 09:15:03;;;;;;;3.37;3.27;;;;;;;;;;4999016;28;20504;-72
2023/09/02 09:17:33;;;;;;;3.73;3.53;;;;;;;;;;4997870;28;20492;-73
2023/09/02 09:20:00;;;;;;;3.50;3.40;;;;;;;;;;4993939;28;20451;-74
2023/09/02 09:22:27;;;;;;;3.27;2.90;;;;;;;;;;4988547;28;20548;-73
2023/09/02 09:24:52;;;;;;;3.20;3.00;;;;;;;;;;4991334;28;20867;-73
2023/09/02 09:27:19;;;;;;;2.60;2.50;;;;;;;;;;4988095;28;20550;-73
2023/09/02 09:29:45;;;;;;;2.67;2.33;;;;;;;;;;4992806;28;20431;-74
2023/09/02 09:32:15;;;;;;;2.70;2.60;;;;;;;;;;4993496;28;20476;-72
2023/09/02 09:34:42;;;;;;;2.47;2.43;;;;;;;;;;4991119;28;20525;-73
2023/09/02 09:37:09;;;;;;;1.90;1.90;;;;;;;;;;4995715;28;20443;-74
2023/09/02 09:39:40;;;;;;;2.17;2.17;;;;;;;;;;4991380;28;20797;-72
2023/09/02 09:42:06;;;;;;;2.80;2.63;;;;;;;;;;4989493;28;20447;-74
2023/09/02 09:44:32;;;;;;;3.13;3.07;;;;;;;;;;4987328;28;20439;-73
2023/09/02 09:46:58;;;;;;;2.37;2.30;;;;;;;;;;4993136;28;21095;-73
2023/09/02 09:49:25;;;;;;;2.83;2.80;;;;;;;;;;4997975;28;20534;-72
2023/09/02 09:51:51;;;;;;;5.10;2.97;;;;;;;;;;4991408;28;20471;-73
2023/09/02 09:54:17;;;;;;;2.83;2.63;;;;;;;;;;4991347;28;20455;-72
2023/09/02 09:56:44;;;;;;;1.93;1.93;;;;;;;;;;4993714;28;20423;-73
2023/09/02 09:59:10;;;;;;;1.77;1.77;;;;;;;;;;4995586;28;20529;-74
2023/09/02 10:01:37;;;;;;;2.10;2.10;;;;;;;;;;4996328;28;20542;-73
2023/09/02 10:04:09;;;;;;;2.13;2.13;;;;;;;;;;4993760;28;20759;-75
2023/09/02 10:06:39;;;;;;;1.20;1.20;;;;;;;;;;4997197;28;20814;-75
2023/09/02 10:09:05;;;;;;;2.30;2.20;;;;;;;;;;4987976;28;20457;-74
2023/09/02 10:11:30;;;;;;;1.53;1.47;;;;;;;;;;4998226;28;20673;-75
2023/09/02 10:13:57;;;;;;;1.60;1.50;;;;;;;;;;4992568;28;20481;-74
2023/09/02 10:16:25;;;;;;;2.13;2.13;;;;;;;;;;4990809;28;20547;-74
2023/09/02 10:18:51;;;;;;;1.40;1.40;;;;;;;;;;4987914;28;20450;-74
2023/09/02 10:21:19;;;;;;;4.50;2.10;;;;;;;;;;4984363;28;20509;-74
2023/09/02 10:23:50;;;;;;;1.50;1.50;;;;;;;;;;4990564;28;20526;-75
2023/09/02 10:26:20;;;;;;;1.70;1.70;;;;;;;;;;4991647;28;20852;-77
2023/09/02 10:28:49;;;;;;;1.50;1.40;;;;;;;;;;4998378;28;20494;-75
2023/09/02 10:31:22;;;;;;;1.90;1.90;;;;;;;;;;4991844;28;20451;-73
2023/09/02 10:33:54;;;;;;;1.60;1.60;;;;;;;;;;4995457;28;20431;-73
2023/09/02 10:36:21;;;;;;;2.20;2.00;;;;;;;;;;4993852;28;20817;-74
2023/09/02 10:38:49;;;;;;;1.20;1.20;;;;;;;;;;4998751;28;20477;-74
2023/09/02 10:41:16;;;;;;;1.53;1.53;;;;;;;;;;4999485;28;20461;-74
2023/09/02 10:43:42;;;;;;;1.97;1.90;;;;;;;;;;4995427;28;20463;-74
2023/09/02 10:46:08;;;;;;;1.50;1.50;;;;;;;;;;4995421;28;20508;-74
2023/09/02 10:48:40;;;;;;;1.20;1.10;;;;;;;;;;4994474;28;20493;-78
2023/09/02 10:51:07;;;;;;;1.90;1.67;;;;;;;;;;4990288;28;21242;-75
2023/09/02 10:53:48;;;;;;;3.17;1.43;;;;;;;;;;4991549;28;20440;-74
2023/09/02 10:56:30;;;;;;;1.77;1.67;;;;;;;;;;4995535;28;20546;-74
2023/09/02 10:58:57;;;;;;;1.70;1.70;;;;;;;;;;4996662;28;20485;-75
2023/09/02 11:01:24;;;;;;;1.13;1.13;;;;;;;;;;4988307;28;21078;-75
2023/09/02 11:03:51;;;;;;;1.07;1.07;;;;;;;;;;4997719;28;20470;-74
2023/09/02 11:06:17;;;;;;;1.77;1.73;;;;;;;;;;4998516;28;20439;-74
2023/09/02 11:08:53;;;;;;;2.10;2.10;;;;;;;;;;4992746;28;20847;-74
2023/09/02 11:11:20;;;;;;;1.80;1.77;;;;;;;;;;4995804;28;20841;-73
2023/09/02 11:14:05;;;;;;;1.73;1.63;;;;;;;;;;4991726;28;20566;-76
2023/09/02 11:16:31;;;;;;;1.90;1.80;;;;;;;;;;4996420;28;20906;-75
2023/09/02 11:19:00;;;;;;;1.83;1.73;;;;;;;;;;4995497;28;20442;-74
2023/09/02 11:21:46;;;;;;;1.97;1.87;;;;;;;;;;4991869;28;20447;-75
2023/09/02 11:24:22;;;;;;;1.60;1.60;;;;;;;;;;4997124;28;20535;-74
2023/09/02 11:26:55;;;;;;;2.60;2.50;;;;;;;;;;4992616;28;20443;-76
2023/09/02 11:29:24;;;;;;;1.80;1.80;;;;;;;;;;4990650;28;20467;-73
2023/09/02 11:31:57;;;;;;;2.70;2.60;;;;;;;;;;5006346;28;20447;-74
2023/09/02 11:34:24;;;;;;;1.80;1.80;;;;;;;;;;4994547;28;20431;-75
2023/09/02 11:36:53;;;;;;;2.20;1.80;;;;;;;;;;4997624;28;20458;-74
2023/09/02 11:39:19;;;;;;;2.13;2.13;;;;;;;;;;4992047;28;20444;-74
2023/09/02 11:41:45;;;;;;;1.60;1.60;;;;;;;;;;4994167;28;20471;-74
2023/09/02 11:44:11;;;;;;;2.00;1.90;;;;;;;;;;4999807;28;20431;-75
2023/09/02 11:46:39;;;;;;;1.77;1.67;;;;;;;;;;5000428;28;20513;-74
2023/09/02 11:49:11;;;;;;;1.50;1.50;;;;;;;;;;5001263;28;20523;-76
2023/09/02 11:51:37;;;;;;;1.33;1.33;;;;;;;;;;4993016;28;20454;-74
2023/09/02 11:54:03;;;;;;;1.40;1.40;;;;;;;;;;5004696;28;20856;-74
2023/09/02 11:56:29;;;;;;;1.70;1.60;;;;;;;;;;4997813;28;20447;-73
2023/09/02 11:58:55;;;;;;;1.47;1.47;;;;;;;;;;5001903;28;20420;-73
2023/09/02 12:01:22;;;;;;;1.80;1.80;;;;;;;;;;5005753;28;21047;-75
2023/09/02 12:03:48;;;;;;;1.33;1.33;;;;;;;;;;4994679;28;20431;-74
2023/09/02 12:06:14;;;;;;;2.87;1.70;;;;;;;;;;4999099;28;20575;-74
2023/09/02 12:08:40;;;;;;;2.10;2.10;;;;;;;;;;4996002;28;20447;-76
2023/09/02 12:11:06;;;;;;;1.90;1.90;;;;;;;;;;4998613;28;20559;-75
2023/09/02 12:13:33;;;;;;;2.33;2.23;;;;;;;;;;4992516;28;21032;-75
2023/09/02 12:15:59;;;;;;;1.90;1.87;;;;;;;;;;5002977;28;20945;-74
2023/09/02 12:18:25;;;;;;;2.20;2.20;;;;;;;;;;4991548;28;20447;-73
2023/09/02 12:20:51;;;;;;;1.90;1.80;;;;;;;;;;4998592;28;20435;-74
2023/09/02 12:23:18;;;;;;;1.60;1.60;;;;;;;;;;5001608;28;20462;-73
2023/09/02 12:26:00;;;;;;;1.50;1.40;;;;;;;;;;5000796;28;20736;-74
2023/09/02 12:28:29;;;;;;;1.80;1.70;;;;;;;;;;4993525;28;20447;-73
2023/09/02 12:30:56;;;;;;;2.20;2.10;;;;;;;;;;4998907;28;20466;-74
2023/09/02 12:33:22;;;;;;;5.70;5.40;;;;;;;;;;4997810;28;20439;-74
2023/09/02 12:35:51;;;;;;;2.70;2.50;;;;;;;;;;4999778;28;20527;-74
2023/09/02 12:38:20;;;;;;;2.10;2.10;;;;;;;;;;5000104;28;20969;-73
2023/09/02 12:40:56;;;;;;;1.97;1.87;;;;;;;;;;5000384;28;20994;-73
2023/09/02 12:43:27;;;;;;;2.23;1.83;;;;;;;;;;5000729;28;20471;-73
2023/09/02 12:45:53;;;;;;;2.50;2.30;;;;;;;;;;4991573;28;20502;-74
2023/09/02 12:48:19;;;;;;;2.47;2.47;;;;;;;;;;5001711;28;20545;-74
2023/09/02 12:50:45;;;;;;;1.93;1.93;;;;;;;;;;4996704;28;20439;-72
2023/09/02 12:53:12;;;;;;;2.30;2.20;;;;;;;;;;4996579;28;20450;-73
2023/09/02 12:55:42;;;;;;;2.33;2.33;;;;;;;;;;5004226;28;20435;-73
2023/09/02 12:58:08;;;;;;;2.70;2.43;;;;;;;;;;5007160;28;20510;-74
2023/09/02 13:00:34;;;;;;;4.50;2.50;;;;;;;;;;4994866;28;21273;-76
2023/09/02 13:03:00;;;;;;;2.00;2.00;;;;;;;;;;4998899;28;20478;-75
2023/09/02 13:05:26;;;;;;;2.73;2.10;;;;;;;;;;5003226;28;20439;-75
2023/09/02 13:07:54;;;;;;;3.10;3.10;;;;;;;;;;4989492;28;20501;-74
2023/09/02 13:10:20;;;;;;;3.30;3.20;;;;;;;;;;5001601;28;20907;-74
2023/09/02 13:12:46;;;;;;;3.03;2.93;;;;;;;;;;5002014;28;20965;-73
2023/09/02 13:15:12;;;;;;;3.33;3.13;;;;;;;;;;5012960;28;20572;-74
2023/09/02 13:17:39;;;;;;;4.03;3.83;;;;;;;;;;5004064;28;20918;-76
2023/09/02 13:20:05;;;;;;;3.87;3.60;;;;;;;;;;5020514;28;20430;-74
2023/09/02 13:22:34;;;;;;;4.23;4.03;;;;;;;;;;5004909;28;20556;-74
2023/09/02 13:25:00;;;;;;;4.60;4.37;;;;;;;;;;4995476;28;20493;-75
2023/09/02 13:27:28;;;;;;;4.73;4.53;;;;;;;;;;4995658;28;20450;-74
2023/09/02 13:29:54;;;;;;;5.50;5.20;;;;;;;;;;4996289;28;20471;-74
2023/09/02 13:32:26;;;;;;;6.97;6.57;;;;;;;;;;4996995;28;20497;-74
2023/09/02 13:35:06;;;;;;;5.90;5.67;;;;;;;;;;4998119;28;21205;-74
2023/09/02 13:37:32;;;;;;;5.23;5.13;;;;;;;;;;5008158;28;20490;-74
2023/09/02 13:40:02;;;;;;;5.40;5.20;;;;;;;;;;4993843;28;21205;-76
2023/09/02 13:42:28;;;;;;;5.87;5.47;;;;;;;;;;5000812;28;20470;-75
2023/09/02 13:45:08;;;;;;;8.97;8.37;;;;;;;;;;4998667;28;20451;-74
2023/09/02 13:47:34;;;;;;;7.50;7.10;;;;;;;;;;4993212;28;20435;-74
2023/09/02 13:50:00;;;;;;;7.10;6.60;;;;;;;;;;5001587;28;20586;-74
2023/09/02 13:52:28;;;;;;;6.67;6.37;;;;;;;;;;4998496;28;20436;-74
2023/09/02 13:54:54;;;;;;;6.97;6.77;;;;;;;;;;4997001;28;20451;-73
2023/09/02 13:57:22;;;;;;;7.50;7.10;;;;;;;;;;4998357;28;20521;-74
2023/09/02 13:59:48;;;;;;;7.87;7.37;;;;;;;;;;4993920;28;21190;-75
2023/09/02 14:02:15;;;;;;;7.60;7.00;;;;;;;;;;4998149;28;20894;-74
2023/09/02 14:04:46;;;;;;;8.00;7.60;;;;;;;;;;4996577;28;20475;-74
2023/09/02 14:07:15;;;;;;;10.20;9.40;;;;;;;;;;4992659;28;20456;-74
2023/09/02 14:09:47;;;;;;;8.80;8.30;;;;;;;;;;4997461;28;20462;-74
2023/09/02 14:12:14;;;;;;;9.30;8.80;;;;;;;;;;5014740;28;20485;-74
2023/09/02 14:14:40;;;;;;;9.60;8.80;;;;;;;;;;4995115;28;20465;-79
2023/09/02 14:17:06;;;;;;;9.03;8.53;;;;;;;;;;4999960;28;20614;-75
2023/09/02 14:19:33;;;;;;;9.50;8.80;;;;;;;;;;4999035;28;20551;-75
2023/09/02 14:21:59;;;;;;;11.83;11.00;;;;;;;;;;4996386;28;20537;-75
2023/09/02 14:24:25;;;;;;;9.63;9.10;;;;;;;;;;4995262;28;20605;-75
2023/09/02 14:27:06;;;;;;;12.57;11.53;;;;;;;;;;4996595;28;20534;-74
2023/09/02 14:29:32;;;;;;;12.37;11.40;;;;;;;;;;4992867;28;20444;-75
2023/09/02 14:31:58;;;;;;;12.20;11.40;;;;;;;;;;4991900;28;20519;-74